Time;durP1;ratioP1;P1;durP2;ratioP2;P2;SDS_P1;SDS_P2;PMS_P1;PMS_P2;Temp;Humidity;BMP_temperature;BMP_pressure;BME280_temperature;BME280_humidity;BME280_pressure;Samples;Min_cycle;Max_cycle;Signal;HPM_P1;HPM_P2
2022/08/09 00:01:32;;;;;;;1.63;0.70;;;19.30;78.50;;;;;;5117351;28;20463;-81
2022/08/09 00:03:59;;;;;;;0.70;0.70;;;19.40;81.70;;;;;;5116984;28;20962;-81
2022/08/09 00:06:26;;;;;;;0.60;0.60;;;19.30;81.20;;;;;;5117243;28;20478;-81
2022/08/09 00:08:54;;;;;;;0.53;0.53;;;19.30;81.00;;;;;;5117283;28;20446;-81
2022/08/09 00:11:22;;;;;;;0.43;0.43;;;19.30;81.00;;;;;;5116631;28;20490;-81
2022/08/09 00:13:49;;;;;;;0.60;0.60;;;19.20;80.30;;;;;;5117267;28;20437;-81
2022/08/09 00:16:17;;;;;;;0.80;0.67;;;19.20;81.40;;;;;;5117101;28;20484;-81
2022/08/09 00:18:44;;;;;;;0.77;0.77;;;19.10;82.50;;;;;;5117064;28;20451;-81
2022/08/09 00:21:11;;;;;;;0.60;0.60;;;19.10;82.10;;;;;;5116694;28;20996;-81
2022/08/09 00:23:38;;;;;;;0.50;0.50;;;19.10;81.10;;;;;;5116986;28;20446;-81
2022/08/09 00:26:06;;;;;;;0.60;0.60;;;19.00;81.60;;;;;;5116568;28;20451;-81
2022/08/09 00:28:33;;;;;;;0.50;0.50;;;19.00;82.10;;;;;;5116552;28;20447;-80
2022/08/09 00:31:01;;;;;;;0.77;0.70;;;19.00;83.00;;;;;;5116764;28;20465;-81
2022/08/09 00:33:29;;;;;;;0.60;0.60;;;19.00;82.60;;;;;;5116482;27;20972;-81
2022/08/09 00:35:58;;;;;;;0.80;0.80;;;18.90;82.20;;;;;;5116745;28;20450;-81
2022/08/09 00:38:25;;;;;;;0.60;0.60;;;18.90;81.00;;;;;;5115915;28;20443;-81
2022/08/09 00:40:52;;;;;;;0.60;0.53;;;18.90;81.20;;;;;;5116574;28;20471;-80
2022/08/09 00:43:19;;;;;;;0.97;0.60;;;18.80;82.50;;;;;;5116550;28;20520;-80
2022/08/09 00:45:46;;;;;;;0.70;0.70;;;18.80;83.50;;;;;;5116556;28;20504;-81
2022/08/09 00:48:13;;;;;;;0.67;0.67;;;18.80;82.90;;;;;;5116622;28;20799;-81
2022/08/09 00:50:41;;;;;;;0.60;0.60;;;18.70;82.80;;;;;;5116368;28;20463;-81
2022/08/09 00:53:09;;;;;;;0.73;0.70;;;18.70;83.10;;;;;;5116479;28;20423;-80
2022/08/09 00:55:36;;;;;;;2.30;0.70;;;18.70;83.80;;;;;;5116374;28;20500;-80
2022/08/09 00:58:03;;;;;;;0.93;0.60;;;18.60;83.10;;;;;;5116319;27;20454;-81
2022/08/09 01:00:30;;;;;;;2.00;0.63;;;18.60;84.20;;;;;;5115862;28;20974;-81
2022/08/09 01:03:08;;;;;;;1.00;0.73;;;18.60;84.40;;;;;;5116206;28;20459;-80
2022/08/09 01:05:42;;;;;;;1.00;0.70;;;18.50;85.40;;;;;;5116243;28;20427;-80
2022/08/09 01:08:14;;;;;;;3.43;0.60;;;18.50;85.60;;;;;;5116084;28;20467;-81
2022/08/09 01:10:51;;;;;;;0.63;0.63;;;18.50;85.60;;;;;;5115668;28;20478;-80
2022/08/09 01:13:23;;;;;;;0.60;0.60;;;18.40;86.00;;;;;;5115773;28;20935;-80
2022/08/09 01:15:53;;;;;;;0.50;0.50;;;18.40;86.40;;;;;;5115706;28;20919;-81
2022/08/09 01:18:26;;;;;;;0.73;0.73;;;18.40;86.40;;;;;;5115909;28;20442;-81
2022/08/09 01:20:59;;;;;;;1.20;0.70;;;18.30;85.70;;;;;;5115491;28;20982;-80
2022/08/09 01:23:44;;;;;;;0.87;0.60;;;18.30;85.40;;;;;;5115896;28;20434;-80
2022/08/09 01:26:24;;;;;;;1.33;0.70;;;18.20;86.10;;;;;;5115601;28;20890;-80
2022/08/09 01:28:55;;;;;;;0.60;0.60;;;18.20;86.60;;;;;;5115454;28;20427;-80
2022/08/09 01:31:26;;;;;;;0.60;0.60;;;18.20;85.60;;;;;;5115253;28;20553;-81
2022/08/09 01:33:56;;;;;;;0.80;0.73;;;18.10;85.70;;;;;;5115666;28;20440;-81
2022/08/09 01:36:26;;;;;;;0.70;0.53;;;18.10;87.00;;;;;;5115555;28;20454;-81
2022/08/09 01:38:53;;;;;;;0.50;0.50;;;18.00;86.30;;;;;;5115489;28;20451;-81
2022/08/09 01:41:24;;;;;;;0.60;0.60;;;18.00;86.30;;;;;;5115365;28;20467;-80
2022/08/09 01:43:55;;;;;;;0.80;0.80;;;17.90;86.70;;;;;;5115139;28;20434;-80
2022/08/09 01:46:25;;;;;;;1.63;0.70;;;17.90;87.70;;;;;;5115019;28;20776;-80
2022/08/09 01:48:53;;;;;;;0.80;0.70;;;17.80;86.30;;;;;;5115373;28;20422;-80
2022/08/09 01:51:23;;;;;;;0.57;0.57;;;17.80;87.10;;;;;;5113809;28;20986;-80
2022/08/09 01:53:53;;;;;;;0.60;0.60;;;17.80;87.20;;;;;;5114905;27;20785;-80
2022/08/09 01:56:22;;;;;;;1.63;0.80;;;17.80;88.00;;;;;;5115227;28;20442;-80
2022/08/09 01:58:52;;;;;;;0.80;0.67;;;17.80;87.20;;;;;;5115144;28;20439;-80
2022/08/09 02:01:19;;;;;;;0.60;0.60;;;17.80;87.60;;;;;;5114790;28;20470;-81
2022/08/09 02:03:49;;;;;;;1.30;0.70;;;17.80;87.40;;;;;;5115024;28;20446;-81
2022/08/09 02:07:07;;;;;;;1.53;0.90;;;17.80;87.50;;;;;;5114964;28;20452;-81
2022/08/09 02:09:06;;;;;;;1.10;1.00;;;17.80;86.70;;;;;;5114510;28;20808;-81
2022/08/09 02:11:33;;;;;;;0.90;0.80;;;17.80;86.80;;;;;;5114379;28;20475;-80
2022/08/09 02:14:02;;;;;;;1.80;0.80;;;17.80;87.10;;;;;;5114837;28;20862;-80
2022/08/09 02:16:32;;;;;;;0.83;0.83;;;17.80;87.00;;;;;;5114784;28;20446;-80
2022/08/09 02:18:59;;;;;;;0.70;0.60;;;17.70;88.40;;;;;;5114718;28;20850;-80
2022/08/09 02:21:27;;;;;;;1.10;0.70;;;17.70;88.10;;;;;;5114643;28;20470;-80
2022/08/09 02:23:57;;;;;;;0.53;0.53;;;17.60;87.50;;;;;;5114668;28;20439;-80
2022/08/09 02:26:25;;;;;;;0.70;0.70;;;17.60;88.40;;;;;;5115130;28;20443;-80
2022/08/09 02:28:55;;;;;;;0.70;0.70;;;17.60;88.50;;;;;;5114181;28;20475;-80
2022/08/09 02:31:30;;;;;;;0.40;0.40;;;17.50;89.50;;;;;;5114410;28;20474;-80
2022/08/09 02:34:01;;;;;;;1.13;1.13;;;17.50;89.20;;;;;;5114523;28;20431;-80
2022/08/09 02:36:32;;;;;;;0.57;0.57;;;17.40;89.30;;;;;;5114155;28;20435;-80
2022/08/09 02:39:02;;;;;;;1.23;0.60;;;17.40;89.90;;;;;;5115304;28;20521;-81
2022/08/09 02:41:36;;;;;;;0.87;0.50;;;17.30;89.70;;;;;;5114306;28;20815;-81
2022/08/09 02:44:06;;;;;;;0.50;0.50;;;17.30;90.30;;;;;;5115174;28;20432;-81
2022/08/09 02:46:38;;;;;;;1.00;0.90;;;17.30;90.50;;;;;;5114318;28;20793;-81
2022/08/09 02:49:10;;;;;;;1.20;0.87;;;17.30;90.30;;;;;;5113870;28;20459;-81
2022/08/09 02:51:39;;;;;;;0.60;0.60;;;17.30;90.20;;;;;;5114173;28;20532;-81
2022/08/09 02:54:07;;;;;;;0.60;0.60;;;17.30;90.10;;;;;;5114129;28;20447;-81
2022/08/09 02:56:35;;;;;;;0.80;0.60;;;17.20;90.30;;;;;;5114100;28;20454;-80
2022/08/09 02:59:05;;;;;;;1.03;0.70;;;17.20;90.40;;;;;;5114058;28;20462;-80
2022/08/09 03:01:35;;;;;;;0.50;0.50;;;17.20;90.50;;;;;;5113626;28;20470;-80
2022/08/09 03:04:02;;;;;;;0.93;0.50;;;17.10;90.50;;;;;;5114020;28;20439;-80
2022/08/09 03:06:31;;;;;;;0.60;0.50;;;17.10;90.90;;;;;;5113996;28;20458;-80
2022/08/09 03:09:00;;;;;;;0.67;0.60;;;17.00;91.00;;;;;;5113882;28;20482;-80
2022/08/09 03:11:27;;;;;;;0.50;0.50;;;17.00;90.70;;;;;;5113333;28;20990;-80
2022/08/09 03:13:56;;;;;;;0.67;0.67;;;17.00;90.90;;;;;;5113903;28;20533;-80
2022/08/09 03:16:24;;;;;;;0.87;0.60;;;17.00;91.20;;;;;;5113540;28;20443;-80
2022/08/09 03:18:52;;;;;;;1.00;0.57;;;17.00;91.10;;;;;;5113547;28;20466;-80
2022/08/09 03:21:20;;;;;;;0.60;0.60;;;16.90;91.30;;;;;;5113728;28;20467;-80
2022/08/09 03:23:47;;;;;;;0.87;0.70;;;16.90;91.40;;;;;;5113798;28;20495;-80
2022/08/09 03:26:15;;;;;;;1.13;0.80;;;16.90;91.40;;;;;;5113468;28;20957;-80
2022/08/09 03:28:43;;;;;;;0.50;0.50;;;16.90;91.50;;;;;;5113348;28;20486;-80
2022/08/09 03:31:11;;;;;;;0.60;0.60;;;16.90;91.70;;;;;;5114493;28;20580;-80
2022/08/09 03:33:39;;;;;;;1.80;0.73;;;16.90;91.80;;;;;;5113659;28;20537;-80
2022/08/09 03:36:09;;;;;;;0.70;0.70;;;16.90;91.70;;;;;;5113366;28;20962;-80
2022/08/09 03:38:36;;;;;;;2.80;0.60;;;16.90;91.50;;;;;;5113945;28;20447;-80
2022/08/09 03:41:03;;;;;;;1.40;0.80;;;16.80;91.50;;;;;;5113207;28;20841;-80
2022/08/09 03:43:30;;;;;;;1.00;0.70;;;16.80;91.90;;;;;;5113317;28;20958;-80
2022/08/09 03:45:56;;;;;;;0.80;0.60;;;16.80;92.00;;;;;;5113624;28;20439;-80
2022/08/09 03:48:24;;;;;;;0.73;0.73;;;16.80;91.70;;;;;;5113514;28;20485;-80
2022/08/09 03:50:53;;;;;;;0.50;0.50;;;16.80;91.90;;;;;;5113481;28;20463;-80
2022/08/09 03:53:22;;;;;;;1.20;0.77;;;16.80;92.20;;;;;;5113572;28;20808;-80
2022/08/09 03:55:49;;;;;;;0.90;0.90;;;16.70;91.70;;;;;;5113218;28;20450;-80
2022/08/09 03:58:17;;;;;;;1.00;0.90;;;16.70;92.00;;;;;;5113217;28;20461;-80
2022/08/09 04:00:45;;;;;;;1.60;0.90;;;16.70;91.90;;;;;;5113424;28;20561;-80
2022/08/09 04:03:12;;;;;;;0.70;0.60;;;16.60;91.60;;;;;;5113413;28;20797;-80
2022/08/09 04:05:39;;;;;;;1.07;0.90;;;16.60;91.90;;;;;;5113434;28;20455;-80
2022/08/09 04:08:06;;;;;;;0.60;0.60;;;16.60;92.10;;;;;;5113021;28;20995;-80
2022/08/09 04:10:34;;;;;;;0.60;0.57;;;16.60;92.40;;;;;;5112835;28;21020;-80
2022/08/09 04:13:08;;;;;;;1.20;0.80;;;16.60;92.00;;;;;;5113364;28;20454;-80
2022/08/09 04:15:36;;;;;;;0.50;0.50;;;16.50;92.00;;;;;;5117139;28;20436;-80
2022/08/09 04:18:03;;;;;;;2.67;1.20;;;16.60;92.60;;;;;;5117097;28;20443;-80
2022/08/09 04:20:30;;;;;;;1.00;0.73;;;16.50;92.50;;;;;;5117021;28;20828;-80
2022/08/09 04:22:57;;;;;;;0.90;0.70;;;16.50;92.90;;;;;;5117032;27;20458;-80
2022/08/09 04:25:24;;;;;;;0.50;0.50;;;16.60;93.00;;;;;;5117004;28;20433;-80
2022/08/09 04:27:52;;;;;;;1.10;1.00;;;16.60;93.60;;;;;;5116881;28;20478;-80
2022/08/09 04:30:21;;;;;;;0.90;0.90;;;16.60;93.90;;;;;;5116770;28;20474;-80
2022/08/09 04:32:48;;;;;;;0.60;0.60;;;16.60;93.80;;;;;;5116414;28;20459;-80
2022/08/09 04:35:15;;;;;;;0.83;0.83;;;16.60;93.70;;;;;;5116749;27;20462;-80
2022/08/09 04:37:42;;;;;;;0.47;0.47;;;16.60;94.30;;;;;;5116696;28;20454;-80
2022/08/09 04:40:10;;;;;;;1.27;0.60;;;16.60;94.00;;;;;;5117058;28;20835;-80
2022/08/09 04:42:37;;;;;;;0.77;0.77;;;16.60;94.10;;;;;;5116303;28;20969;-80
2022/08/09 04:45:06;;;;;;;0.60;0.60;;;16.70;94.40;;;;;;5116604;28;20470;-80
2022/08/09 04:47:33;;;;;;;3.00;0.67;;;16.70;94.30;;;;;;5116426;28;20454;-81
2022/08/09 04:49:59;;;;;;;0.60;0.60;;;16.70;94.50;;;;;;5117306;28;20463;-81
2022/08/09 04:52:28;;;;;;;0.60;0.60;;;16.70;94.80;;;;;;5116476;28;20443;-80
2022/08/09 04:54:55;;;;;;;1.00;0.73;;;16.70;95.00;;;;;;5116409;28;20443;-80
2022/08/09 04:57:22;;;;;;;0.80;0.80;;;16.70;94.80;;;;;;5116054;28;20987;-80
2022/08/09 04:59:48;;;;;;;0.87;0.50;;;16.70;94.60;;;;;;5115886;28;20450;-80
2022/08/09 05:02:16;;;;;;;0.57;0.57;;;16.70;94.80;;;;;;5115941;28;20450;-80
2022/08/09 05:04:43;;;;;;;1.30;0.80;;;16.80;95.00;;;;;;5116207;28;20443;-80
2022/08/09 05:07:10;;;;;;;0.53;0.53;;;16.80;95.10;;;;;;5116150;27;20443;-80
2022/08/09 05:09:37;;;;;;;0.57;0.57;;;16.80;94.60;;;;;;5116204;28;20916;-80
2022/08/09 05:12:04;;;;;;;0.70;0.70;;;16.80;94.90;;;;;;5116107;28;20438;-80
2022/08/09 05:14:31;;;;;;;0.77;0.77;;;16.80;94.80;;;;;;5116021;28;20443;-80
2022/08/09 05:16:58;;;;;;;0.70;0.60;;;16.80;94.70;;;;;;5115949;28;20450;-80
2022/08/09 05:19:28;;;;;;;0.60;0.60;;;16.80;94.80;;;;;;5115640;28;20930;-81
2022/08/09 05:21:55;;;;;;;0.60;0.60;;;16.90;95.20;;;;;;5116108;28;20559;-80
2022/08/09 05:24:22;;;;;;;0.53;0.53;;;16.90;95.20;;;;;;5115609;27;20466;-80
2022/08/09 05:26:48;;;;;;;0.80;0.70;;;16.90;95.60;;;;;;5115823;28;20458;-80
2022/08/09 05:29:18;;;;;;;1.27;0.60;;;16.90;95.40;;;;;;5115406;28;20482;-80
2022/08/09 05:31:45;;;;;;;1.00;0.73;;;17.00;95.50;;;;;;5115644;27;20475;-80
2022/08/09 05:34:13;;;;;;;4.33;1.10;;;17.00;95.70;;;;;;5115333;28;21003;-80
2022/08/09 05:36:41;;;;;;;0.93;0.93;;;17.00;95.80;;;;;;5115601;28;20454;-80
2022/08/09 05:39:08;;;;;;;1.00;0.70;;;17.10;95.80;;;;;;5115557;27;20458;-80
2022/08/09 05:41:34;;;;;;;0.70;0.70;;;17.10;95.60;;;;;;5115463;28;20463;-80
2022/08/09 05:44:01;;;;;;;1.90;0.70;;;17.20;96.20;;;;;;5116236;28;20442;-80
2022/08/09 05:46:28;;;;;;;1.33;1.10;;;17.20;95.90;;;;;;5115020;28;20447;-80
2022/08/09 05:48:55;;;;;;;0.60;0.50;;;17.30;96.30;;;;;;5115267;28;20478;-80
2022/08/09 05:51:21;;;;;;;0.73;0.73;;;17.30;95.80;;;;;;5115183;28;20881;-80
2022/08/09 05:53:50;;;;;;;0.73;0.73;;;17.40;96.10;;;;;;5114915;28;20813;-80
2022/08/09 05:56:17;;;;;;;1.60;1.00;;;17.50;96.10;;;;;;5115185;28;20451;-80
2022/08/09 05:58:43;;;;;;;0.60;0.60;;;17.60;96.10;;;;;;5115135;27;20451;-80
2022/08/09 06:01:10;;;;;;;0.93;0.80;;;17.70;95.80;;;;;;5115057;28;20463;-80
2022/08/09 06:03:37;;;;;;;0.60;0.60;;;17.90;94.90;;;;;;5114775;28;20439;-80
2022/08/09 06:06:04;;;;;;;0.60;0.60;;;18.10;94.90;;;;;;5115036;28;20439;-80
2022/08/09 06:08:30;;;;;;;1.47;1.03;;;18.30;94.50;;;;;;5114900;28;20490;-80
2022/08/09 06:10:59;;;;;;;1.50;1.00;;;18.50;94.50;;;;;;5113791;28;20848;-80
2022/08/09 06:13:26;;;;;;;1.17;0.80;;;18.70;94.50;;;;;;5114497;28;20957;-80
2022/08/09 06:15:53;;;;;;;1.17;0.87;;;19.00;94.00;;;;;;5114737;28;20446;-80
2022/08/09 06:18:20;;;;;;;1.57;0.70;;;19.10;93.20;;;;;;5114686;28;20444;-80
2022/08/09 06:20:47;;;;;;;1.17;0.83;;;19.40;93.50;;;;;;5114669;28;20479;-80
2022/08/09 06:23:14;;;;;;;0.97;0.73;;;19.60;93.20;;;;;;5114347;28;20828;-80
2022/08/09 06:25:40;;;;;;;0.83;0.60;;;19.80;92.90;;;;;;5114308;28;20961;-80
2022/08/09 06:28:08;;;;;;;1.00;0.90;;;20.00;93.10;;;;;;5114508;28;20454;-80
2022/08/09 06:30:35;;;;;;;1.00;0.90;;;20.20;93.10;;;;;;5114209;28;20451;-80
2022/08/09 06:33:02;;;;;;;1.00;0.90;;;20.40;93.10;;;;;;5114499;28;20794;-81
2022/08/09 06:35:29;;;;;;;1.00;0.90;;;20.60;92.70;;;;;;5114654;28;20446;-81
2022/08/09 06:37:55;;;;;;;0.70;0.70;;;20.80;92.20;;;;;;5113546;28;20964;-81
2022/08/09 06:40:23;;;;;;;1.10;1.00;;;20.90;92.50;;;;;;5114317;28;20832;-80
2022/08/09 06:42:50;;;;;;;0.70;0.70;;;21.10;92.50;;;;;;5114383;28;20934;-80
2022/08/09 06:45:18;;;;;;;1.33;1.20;;;21.30;92.80;;;;;;5114318;28;20446;-81
2022/08/09 06:47:45;;;;;;;1.37;0.93;;;21.50;92.10;;;;;;5114272;28;20446;-81
2022/08/09 06:50:12;;;;;;;1.67;1.00;;;21.70;91.90;;;;;;5114122;28;20550;-81
2022/08/09 06:52:44;;;;;;;2.03;1.07;;;21.80;91.80;;;;;;5114186;28;20450;-81
2022/08/09 06:55:11;;;;;;;1.17;0.97;;;22.00;91.80;;;;;;5114158;28;20448;-81
2022/08/09 06:57:38;;;;;;;1.40;1.20;;;22.20;91.00;;;;;;5114117;28;20442;-81
2022/08/09 07:00:06;;;;;;;1.27;1.17;;;22.40;91.10;;;;;;5114019;28;20474;-81
2022/08/09 07:02:34;;;;;;;1.07;1.00;;;22.60;90.40;;;;;;5113724;28;20860;-81
2022/08/09 07:05:02;;;;;;;1.37;1.10;;;22.80;89.70;;;;;;5114045;28;20454;-81
2022/08/09 07:07:29;;;;;;;0.73;0.70;;;22.90;90.10;;;;;;5114008;28;20446;-81
2022/08/09 07:09:55;;;;;;;1.27;1.17;;;23.00;89.10;;;;;;5113545;28;21032;-81
2022/08/09 07:12:22;;;;;;;0.80;0.80;;;23.20;88.10;;;;;;5114014;28;20441;-80
2022/08/09 07:14:50;;;;;;;0.90;0.90;;;23.30;88.40;;;;;;5113939;28;20449;-81
2022/08/09 07:17:17;;;;;;;1.17;1.00;;;23.20;88.30;;;;;;5113928;28;20457;-81
2022/08/09 07:19:45;;;;;;;1.17;1.10;;;23.30;89.60;;;;;;5114309;28;20447;-80
2022/08/09 07:22:12;;;;;;;1.00;0.77;;;23.50;88.10;;;;;;5114104;28;20520;-81
2022/08/09 07:24:38;;;;;;;1.20;1.10;;;23.60;86.90;;;;;;5113807;28;20446;-81
2022/08/09 07:27:06;;;;;;;1.10;1.00;;;23.90;86.00;;;;;;5113855;28;20201;-81
2022/08/09 07:29:33;;;;;;;1.20;1.00;;;24.00;85.10;;;;;;5113811;28;20277;-81
2022/08/09 07:32:02;;;;;;;2.47;1.40;;;24.10;85.10;;;;;;5113763;28;20459;-81
2022/08/09 07:34:29;;;;;;;0.80;0.70;;;24.20;85.60;;;;;;5113762;28;20629;-81
2022/08/09 07:36:57;;;;;;;1.15;1.05;;;24.30;84.50;;;;;;5113753;28;20201;-81
2022/08/09 07:39:24;;;;;;;1.08;1.05;;;24.40;83.70;;;;;;5113728;28;20201;-81
2022/08/09 07:41:50;;;;;;;1.20;1.20;;;24.60;82.70;;;;;;5113673;28;20224;-81
2022/08/09 07:44:17;;;;;;;1.38;1.17;;;24.70;82.60;;;;;;5113718;28;20196;-81
2022/08/09 07:46:46;;;;;;;0.90;0.90;;;24.80;82.80;;;;;;5113649;28;20200;-81
2022/08/09 07:49:13;;;;;;;0.95;0.90;;;24.90;82.20;;;;;;5117034;28;20311;-82
2022/08/09 07:51:39;;;;;;;0.90;0.90;;;25.10;81.60;;;;;;5117800;28;20224;-81
2022/08/09 07:54:07;;;;;;;0.90;0.90;;;25.20;81.80;;;;;;5117447;28;20189;-81
2022/08/09 07:56:35;;;;;;;5.00;1.00;;;25.30;81.00;;;;;;5117599;28;20215;-82
2022/08/09 07:59:02;;;;;;;0.90;0.90;;;25.40;79.10;;;;;;5117628;28;20196;-82
2022/08/09 08:01:28;;;;;;;0.80;0.80;;;25.50;79.10;;;;;;5117540;28;20231;-81
2022/08/09 08:03:55;;;;;;;1.40;0.95;;;25.60;77.10;;;;;;5117471;27;20201;-82
2022/08/09 08:06:22;;;;;;;0.88;0.88;;;25.60;78.00;;;;;;5117085;28;20202;-81
2022/08/09 08:08:49;;;;;;;0.80;0.80;;;25.80;77.00;;;;;;5117264;28;20252;-82
2022/08/09 08:11:17;;;;;;;1.20;1.20;;;25.90;77.00;;;;;;5116861;28;20722;-82
2022/08/09 08:13:44;;;;;;;1.05;1.05;;;26.20;77.20;;;;;;5117333;28;20567;-81
2022/08/09 08:16:10;;;;;;;0.90;0.90;;;26.60;75.00;;;;;;5117152;28;20564;-81
2022/08/09 08:18:37;;;;;;;1.50;0.80;;;26.90;73.40;;;;;;5117268;28;20208;-82
2022/08/09 08:21:04;;;;;;;4.47;1.17;;;27.00;73.50;;;;;;5117080;27;20231;-82
2022/08/09 08:23:31;;;;;;;0.70;0.70;;;27.00;72.80;;;;;;5116796;28;20570;-81
2022/08/09 08:25:57;;;;;;;1.02;0.75;;;27.00;72.00;;;;;;5116751;28;20691;-82
2022/08/09 08:28:25;;;;;;;1.45;1.13;;;26.90;72.80;;;;;;5117050;28;20208;-82
2022/08/09 08:30:52;;;;;;;0.90;0.82;;;26.80;72.10;;;;;;5116842;28;20255;-81
2022/08/09 08:33:19;;;;;;;2.15;1.38;;;26.70;72.20;;;;;;5116831;28;20205;-82
2022/08/09 08:35:46;;;;;;;1.08;0.90;;;26.70;72.80;;;;;;5116467;28;20595;-84
2022/08/09 08:38:13;;;;;;;2.05;0.90;;;26.70;72.10;;;;;;5116347;28;20698;-84
2022/08/09 08:40:40;;;;;;;0.90;0.90;;;26.80;70.90;;;;;;5116410;28;20224;-84
2022/08/09 08:43:07;;;;;;;0.98;0.90;;;26.80;71.60;;;;;;5116435;28;20193;-84
2022/08/09 08:45:41;;;;;;;0.90;0.90;;;26.70;71.30;;;;;;5116440;28;20227;-84
2022/08/09 08:48:09;;;;;;;0.77;0.77;;;26.70;69.70;;;;;;5116501;28;20185;-84
2022/08/09 08:50:36;;;;;;;0.90;0.70;;;26.60;71.00;;;;;;5116131;28;20221;-83
2022/08/09 08:53:03;;;;;;;1.13;1.02;;;26.60;71.50;;;;;;5115659;28;20801;-83
2022/08/09 08:55:36;;;;;;;1.30;1.10;;;26.70;70.90;;;;;;5116332;28;20212;-84
2022/08/09 08:58:03;;;;;;;2.55;0.93;;;26.80;71.40;;;;;;5112740;28;20212;-85
2022/08/09 09:00:30;;;;;;;1.02;1.00;;;26.90;69.40;;;;;;5094790;28;20686;-84
2022/08/09 09:03:00;;;;;;;1.40;1.30;;;26.80;69.70;;;;;;5096238;28;20621;-84
2022/08/09 09:05:27;;;;;;;0.70;0.70;;;26.90;70.80;;;;;;5095704;28;20225;-84
2022/08/09 09:07:54;;;;;;;0.88;0.88;;;27.10;68.80;;;;;;5095459;28;20217;-84
2022/08/09 09:10:23;;;;;;;1.02;0.77;;;27.10;68.30;;;;;;5097345;28;20224;-85
2022/08/09 09:12:51;;;;;;;0.82;0.82;;;27.00;69.10;;;;;;5107896;28;20201;-84
2022/08/09 09:15:19;;;;;;;0.93;0.93;;;27.10;67.40;;;;;;5098715;28;20668;-84
2022/08/09 09:17:46;;;;;;;1.95;0.98;;;27.10;67.80;;;;;;5094080;28;20197;-81
2022/08/09 09:20:15;;;;;;;1.17;1.08;;;27.20;67.60;;;;;;5098215;28;20266;-82
2022/08/09 09:22:54;;;;;;;0.77;0.77;;;27.40;68.20;;;;;;5106360;28;20216;-83
2022/08/09 09:25:33;;;;;;;1.02;0.93;;;27.60;67.60;;;;;;5108441;28;20567;-82
2022/08/09 09:28:01;;;;;;;0.90;0.90;;;27.70;67.80;;;;;;5101525;28;20649;-82
2022/08/09 09:30:28;;;;;;;0.80;0.80;;;27.70;65.50;;;;;;5114144;28;20715;-82
2022/08/09 09:33:10;;;;;;;0.93;0.88;;;27.70;66.60;;;;;;5107078;28;20656;-83
2022/08/09 09:35:53;;;;;;;1.10;1.00;;;27.70;64.20;;;;;;5113603;28;20188;-83
2022/08/09 09:38:22;;;;;;;1.95;0.85;;;27.70;66.00;;;;;;5114701;27;20272;-84
2022/08/09 09:40:49;;;;;;;0.85;0.85;;;27.60;65.60;;;;;;5114748;28;20252;-84
2022/08/09 09:43:20;;;;;;;0.88;0.88;;;27.60;65.10;;;;;;5102516;28;20197;-84
2022/08/09 09:45:49;;;;;;;4.40;1.17;;;27.50;64.50;;;;;;5093735;28;20232;-83
2022/08/09 09:48:16;;;;;;;1.20;1.10;;;27.40;64.30;;;;;;5110606;28;20227;-82
2022/08/09 09:50:45;;;;;;;3.13;0.82;;;27.50;63.70;;;;;;5115240;28;20312;-83
2022/08/09 09:53:18;;;;;;;0.85;0.85;;;27.50;64.30;;;;;;5104399;28;20213;-85
2022/08/09 09:55:54;;;;;;;0.75;0.75;;;27.60;64.80;;;;;;5105720;28;20678;-81
2022/08/09 09:58:21;;;;;;;1.20;1.10;;;27.70;64.60;;;;;;5098130;28;20237;-83
2022/08/09 10:00:50;;;;;;;0.70;0.70;;;27.80;64.70;;;;;;5106713;28;20219;-82
2022/08/09 10:03:17;;;;;;;1.40;1.30;;;27.80;65.30;;;;;;5094688;28;20208;-84
2022/08/09 10:06:00;;;;;;;1.77;1.27;;;27.90;63.50;;;;;;5094562;28;20207;-84
2022/08/09 10:08:28;;;;;;;1.25;1.15;;;28.00;63.10;;;;;;5094072;28;20204;-83
2022/08/09 10:10:55;;;;;;;1.10;1.00;;;28.10;62.30;;;;;;5093671;28;20225;-82
2022/08/09 10:13:22;;;;;;;0.82;0.73;;;28.10;61.50;;;;;;5093018;28;20205;-83
2022/08/09 10:15:50;;;;;;;1.00;1.00;;;28.10;62.40;;;;;;5094054;28;20197;-84
2022/08/09 10:18:18;;;;;;;0.77;0.77;;;28.20;62.70;;;;;;5093209;28;20685;-83
2022/08/09 10:20:44;;;;;;;1.10;0.90;;;28.40;61.40;;;;;;5097040;28;20221;-83
2022/08/09 10:23:19;;;;;;;0.82;0.80;;;28.50;62.20;;;;;;5115025;27;20200;-82
2022/08/09 10:25:49;;;;;;;1.23;1.10;;;28.60;61.40;;;;;;5114711;28;20199;-82
2022/08/09 10:28:16;;;;;;;0.82;0.82;;;28.40;60.90;;;;;;5114349;28;20742;-83
2022/08/09 10:30:43;;;;;;;0.80;0.80;;;28.30;61.90;;;;;;5114164;28;20235;-82
2022/08/09 10:33:10;;;;;;;0.90;0.90;;;28.10;60.90;;;;;;5114259;28;20208;-81
2022/08/09 10:35:39;;;;;;;0.80;0.80;;;28.20;61.90;;;;;;5114524;28;20201;-84
2022/08/09 10:38:06;;;;;;;1.00;1.00;;;28.40;61.20;;;;;;5114541;28;20196;-82
2022/08/09 10:40:33;;;;;;;1.20;1.10;;;28.80;61.10;;;;;;5114440;28;20631;-84
2022/08/09 10:43:01;;;;;;;0.93;0.93;;;29.10;61.10;;;;;;5114154;28;20644;-83
2022/08/09 10:45:30;;;;;;;1.08;1.08;;;29.30;58.80;;;;;;5114340;28;20208;-84
2022/08/09 10:48:06;;;;;;;1.15;1.00;;;29.30;59.30;;;;;;5114283;28;20254;-82
2022/08/09 10:53:44;;;;;;;1.02;1.02;;;28.80;59.50;;;;;;5114298;28;20283;-83
2022/08/09 10:56:21;;;;;;;1.35;1.25;;;28.60;60.70;;;;;;5114288;28;20181;-83
2022/08/09 10:58:50;;;;;;;1.17;1.17;;;28.70;60.20;;;;;;5114205;28;20184;-83
2022/08/09 11:01:41;;;;;;;0.70;0.70;;;28.70;59.00;;;;;;5114034;28;20212;-83
2022/08/09 11:04:20;;;;;;;0.88;0.88;;;28.90;59.00;;;;;;5113814;28;20188;-83
2022/08/09 11:06:49;;;;;;;1.13;1.08;;;29.10;59.40;;;;;;5114014;28;20558;-83
2022/08/09 11:09:18;;;;;;;0.93;0.93;;;29.40;58.80;;;;;;5113764;28;20193;-83
2022/08/09 11:12:11;;;;;;;0.88;0.88;;;29.50;57.50;;;;;;5113806;28;20220;-83
2022/08/09 11:14:43;;;;;;;0.95;0.95;;;29.40;58.20;;;;;;5113623;28;20200;-82
2022/08/09 11:17:51;;;;;;;1.35;0.90;;;29.30;59.20;;;;;;5113670;28;20556;-83
2022/08/09 11:20:19;;;;;;;1.10;1.10;;;29.00;59.80;;;;;;5113857;28;20220;-83
2022/08/09 11:23:06;;;;;;;1.10;0.93;;;29.00;59.30;;;;;;5113606;28;20211;-83
2022/08/09 11:25:41;;;;;;;0.63;0.63;;;28.80;57.90;;;;;;5109439;28;20285;-82
2022/08/09 11:28:34;;;;;;;1.00;0.90;;;28.50;56.50;;;;;;5113896;28;20185;-82
2022/08/09 11:31:23;;;;;;;0.70;0.70;;;28.20;56.10;;;;;;5113300;28;20696;-83
2022/08/09 11:33:55;;;;;;;0.80;0.80;;;28.20;58.10;;;;;;5113360;28;20200;-86
2022/08/09 11:36:25;;;;;;;0.80;0.70;;;28.20;57.40;;;;;;5113853;28;20611;-87
2022/08/09 11:39:01;;;;;;;0.80;0.80;;;28.20;57.60;;;;;;5113690;28;20240;-87
2022/08/09 11:41:29;;;;;;;1.00;1.00;;;28.30;57.70;;;;;;5113478;28;20254;-87
2022/08/09 11:43:56;;;;;;;0.80;0.80;;;28.30;56.40;;;;;;5113804;28;20197;-88
2022/08/09 11:46:26;;;;;;;0.88;0.88;;;28.20;57.00;;;;;;5113926;28;20226;-87
2022/08/09 11:48:55;;;;;;;0.80;0.80;;;28.10;56.80;;;;;;5114071;28;20204;-82
2022/08/09 11:51:23;;;;;;;1.08;1.08;;;28.00;57.20;;;;;;5113628;28;20228;-85
2022/08/09 11:54:11;;;;;;;0.90;0.70;;;28.00;56.50;;;;;;5113699;28;20207;-88
2022/08/09 11:56:38;;;;;;;0.70;0.70;;;28.00;56.70;;;;;;5113685;28;20277;-87
2022/08/09 11:59:06;;;;;;;0.70;0.70;;;28.00;56.80;;;;;;5113673;28;20205;-84
2022/08/09 12:01:36;;;;;;;1.75;0.85;;;28.00;57.40;;;;;;5114094;28;20316;-88
2022/08/09 12:04:05;;;;;;;1.20;1.00;;;28.00;57.90;;;;;;5113656;28;20186;-87
2022/08/09 12:06:32;;;;;;;0.70;0.70;;;28.00;57.60;;;;;;5113496;28;20197;-87
2022/08/09 12:09:01;;;;;;;0.90;0.90;;;28.00;58.80;;;;;;5113784;28;20626;-87
2022/08/09 12:11:28;;;;;;;1.25;1.25;;;28.00;57.10;;;;;;5113224;28;20599;-85
2022/08/09 12:13:56;;;;;;;1.05;0.95;;;27.90;56.80;;;;;;5113242;28;20672;-87
2022/08/09 12:16:26;;;;;;;0.68;0.68;;;27.80;56.40;;;;;;5114250;28;20235;-87
2022/08/09 12:18:55;;;;;;;1.10;0.77;;;27.70;56.50;;;;;;5113642;28;20238;-88
2022/08/09 12:21:31;;;;;;;0.75;0.70;;;27.80;56.70;;;;;;5113811;28;20259;-89
2022/08/09 12:24:00;;;;;;;0.60;0.60;;;27.80;55.80;;;;;;5113713;28;20185;-89
2022/08/09 12:26:41;;;;;;;0.60;0.60;;;27.90;55.10;;;;;;5113481;28;20249;-87
2022/08/09 12:29:08;;;;;;;0.70;0.70;;;27.90;55.20;;;;;;5113499;28;20188;-87
2022/08/09 12:31:35;;;;;;;0.90;0.90;;;27.80;56.20;;;;;;5113237;28;20224;-87
2022/08/09 12:34:04;;;;;;;0.77;0.77;;;27.80;54.40;;;;;;5113853;28;20212;-86
2022/08/09 12:36:31;;;;;;;0.82;0.82;;;27.80;54.40;;;;;;5117032;28;20210;-87
2022/08/09 12:38:59;;;;;;;0.60;0.60;;;27.80;53.90;;;;;;5117216;28;20571;-88
2022/08/09 12:41:28;;;;;;;0.88;0.88;;;27.60;53.30;;;;;;5116996;28;20220;-88
2022/08/09 12:43:55;;;;;;;0.63;0.63;;;27.50;53.70;;;;;;5116785;28;20204;-87
2022/08/09 12:46:22;;;;;;;0.63;0.63;;;27.40;53.50;;;;;;5116718;28;20737;-87
2022/08/09 12:48:49;;;;;;;0.70;0.70;;;27.40;52.80;;;;;;5116950;28;20196;-84
2022/08/09 12:51:20;;;;;;;0.80;0.80;;;27.40;53.40;;;;;;5118534;28;20656;-88
2022/08/09 12:53:57;;;;;;;0.60;0.60;;;27.30;53.40;;;;;;5118442;28;20181;-87
2022/08/09 12:56:24;;;;;;;1.45;0.75;;;27.30;53.50;;;;;;5119639;28;20195;-87
2022/08/09 12:59:09;;;;;;;0.60;0.60;;;27.20;53.80;;;;;;5120961;28;20191;-88
2022/08/09 13:01:36;;;;;;;0.60;0.60;;;27.30;53.00;;;;;;5120615;28;20217;-86